sensor_id;sensor_type;location;lat;lon;timestamp;temperature;humidity
19552;DHT22;9921;47.186;9.778;2023-07-09T00:00:14;23.10;99.90
19552;DHT22;9921;47.186;9.778;2023-07-09T00:02:41;23.10;99.90
19552;DHT22;9921;47.186;9.778;2023-07-09T00:05:12;23.10;99.90
19552;DHT22;9921;47.186;9.778;2023-07-09T00:07:39;23.10;99.90
19552;DHT22;9921;47.186;9.778;2023-07-09T00:10:14;23.20;99.90
19552;DHT22;9921;47.186;9.778;2023-07-09T00:12:41;23.20;99.90
19552;DHT22;9921;47.186;9.778;2023-07-09T00:15:11;23.00;99.90
19552;DHT22;9921;47.186;9.778;2023-07-09T00:17:39;22.90;99.90
19552;DHT22;9921;47.186;9.778;2023-07-09T00:20:07;22.70;99.90
19552;DHT22;9921;47.186;9.778;2023-07-09T00:22:39;22.70;99.90
19552;DHT22;9921;47.186;9.778;2023-07-09T00:25:09;22.80;99.90
19552;DHT22;9921;47.186;9.778;2023-07-09T00:27:41;22.80;99.90
19552;DHT22;9921;47.186;9.778;2023-07-09T00:30:16;22.70;99.90
19552;DHT22;9921;47.186;9.778;2023-07-09T00:32:43;22.70;99.90
19552;DHT22;9921;47.186;9.778;2023-07-09T00:35:11;22.50;99.90
19552;DHT22;9921;47.186;9.778;2023-07-09T00:37:41;22.30;99.90
19552;DHT22;9921;47.186;9.778;2023-07-09T00:40:13;22.20;99.90
19552;DHT22;9921;47.186;9.778;2023-07-09T00:42:44;22.00;99.90
19552;DHT22;9921;47.186;9.778;2023-07-09T00:45:20;21.90;99.90
19552;DHT22;9921;47.186;9.778;2023-07-09T00:47:50;22.00;99.90
19552;DHT22;9921;47.186;9.778;2023-07-09T00:50:35;22.00;99.90
19552;DHT22;9921;47.186;9.778;2023-07-09T00:53:11;22.00;99.90
19552;DHT22;9921;47.186;9.778;2023-07-09T00:55:45;22.10;99.90
19552;DHT22;9921;47.186;9.778;2023-07-09T00:58:15;22.00;99.90
19552;DHT22;9921;47.186;9.778;2023-07-09T01:00:47;22.00;99.90
19552;DHT22;9921;47.186;9.778;2023-07-09T01:03:25;21.70;99.90
19552;DHT22;9921;47.186;9.778;2023-07-09T01:05:56;21.70;99.90
19552;DHT22;9921;47.186;9.778;2023-07-09T01:08:24;21.80;99.90
19552;DHT22;9921;47.186;9.778;2023-07-09T01:10:53;21.90;99.90
19552;DHT22;9921;47.186;9.778;2023-07-09T01:13:19;21.90;99.90
19552;DHT22;9921;47.186;9.778;2023-07-09T01:15:48;21.90;99.90
19552;DHT22;9921;47.186;9.778;2023-07-09T01:18:14;22.00;99.90
19552;DHT22;9921;47.186;9.778;2023-07-09T01:20:41;22.10;99.90
19552;DHT22;9921;47.186;9.778;2023-07-09T01:23:10;22.20;99.90
19552;DHT22;9921;47.186;9.778;2023-07-09T01:25:42;21.90;99.90
19552;DHT22;9921;47.186;9.778;2023-07-09T01:28:09;21.70;99.90
19552;DHT22;9921;47.186;9.778;2023-07-09T01:30:39;21.70;99.90
19552;DHT22;9921;47.186;9.778;2023-07-09T01:33:06;21.70;99.90
19552;DHT22;9921;47.186;9.778;2023-07-09T01:35:37;21.70;99.90
19552;DHT22;9921;47.186;9.778;2023-07-09T01:38:06;21.80;99.90
19552;DHT22;9921;47.186;9.778;2023-07-09T01:40:35;21.80;99.90
19552;DHT22;9921;47.186;9.778;2023-07-09T01:43:03;21.80;99.90
19552;DHT22;9921;47.186;9.778;2023-07-09T01:45:32;21.80;99.90
19552;DHT22;9921;47.186;9.778;2023-07-09T01:47:59;21.60;99.90
19552;DHT22;9921;47.186;9.778;2023-07-09T01:50:26;21.60;99.90
19552;DHT22;9921;47.186;9.778;2023-07-09T01:52:54;21.70;99.90
19552;DHT22;9921;47.186;9.778;2023-07-09T01:55:21;21.70;99.90
19552;DHT22;9921;47.186;9.778;2023-07-09T01:57:49;21.80;99.90
19552;DHT22;9921;47.186;9.778;2023-07-09T02:00:17;21.80;99.90
19552;DHT22;9921;47.186;9.778;2023-07-09T02:02:46;21.70;99.90
19552;DHT22;9921;47.186;9.778;2023-07-09T02:05:19;21.80;99.90
19552;DHT22;9921;47.186;9.778;2023-07-09T02:07:47;21.80;99.90
19552;DHT22;9921;47.186;9.778;2023-07-09T02:10:15;21.60;99.90
19552;DHT22;9921;47.186;9.778;2023-07-09T02:12:41;21.60;99.90
19552;DHT22;9921;47.186;9.778;2023-07-09T02:15:11;21.60;99.90
19552;DHT22;9921;47.186;9.778;2023-07-09T02:17:38;21.60;99.90
19552;DHT22;9921;47.186;9.778;2023-07-09T02:20:06;21.70;99.90
19552;DHT22;9921;47.186;9.778;2023-07-09T02:22:33;21.70;99.90
19552;DHT22;9921;47.186;9.778;2023-07-09T02:25:00;21.80;99.90
19552;DHT22;9921;47.186;9.778;2023-07-09T02:27:27;21.80;99.90
19552;DHT22;9921;47.186;9.778;2023-07-09T02:29:54;21.90;99.90
19552;DHT22;9921;47.186;9.778;2023-07-09T02:32:24;21.90;99.90
19552;DHT22;9921;47.186;9.778;2023-07-09T02:34:52;22.00;99.90
19552;DHT22;9921;47.186;9.778;2023-07-09T02:37:21;21.90;99.90
19552;DHT22;9921;47.186;9.778;2023-07-09T02:39:48;21.90;99.90
19552;DHT22;9921;47.186;9.778;2023-07-09T02:42:16;21.90;99.90
19552;DHT22;9921;47.186;9.778;2023-07-09T02:44:44;22.00;99.90
19552;DHT22;9921;47.186;9.778;2023-07-09T02:47:11;22.00;99.90
19552;DHT22;9921;47.186;9.778;2023-07-09T02:49:40;21.80;99.90
19552;DHT22;9921;47.186;9.778;2023-07-09T02:52:07;21.70;99.90
19552;DHT22;9921;47.186;9.778;2023-07-09T02:54:34;21.80;99.90
19552;DHT22;9921;47.186;9.778;2023-07-09T02:57:01;21.70;99.90
19552;DHT22;9921;47.186;9.778;2023-07-09T02:59:28;21.70;99.90
19552;DHT22;9921;47.186;9.778;2023-07-09T03:01:56;21.70;99.90
19552;DHT22;9921;47.186;9.778;2023-07-09T03:04:23;21.70;99.90
19552;DHT22;9921;47.186;9.778;2023-07-09T03:06:51;21.70;99.90
19552;DHT22;9921;47.186;9.778;2023-07-09T03:09:18;21.80;99.90
19552;DHT22;9921;47.186;9.778;2023-07-09T03:11:46;21.80;99.90
19552;DHT22;9921;47.186;9.778;2023-07-09T03:14:14;21.80;99.90
19552;DHT22;9921;47.186;9.778;2023-07-09T03:16:41;21.80;99.90
19552;DHT22;9921;47.186;9.778;2023-07-09T03:19:08;21.70;99.90
19552;DHT22;9921;47.186;9.778;2023-07-09T03:21:35;21.70;99.90
19552;DHT22;9921;47.186;9.778;2023-07-09T03:24:04;21.70;99.90
19552;DHT22;9921;47.186;9.778;2023-07-09T03:26:31;21.60;99.90
19552;DHT22;9921;47.186;9.778;2023-07-09T03:28:58;21.60;99.90
19552;DHT22;9921;47.186;9.778;2023-07-09T03:31:25;21.60;99.90
19552;DHT22;9921;47.186;9.778;2023-07-09T03:33:52;21.50;99.90
19552;DHT22;9921;47.186;9.778;2023-07-09T03:36:19;21.50;99.90
19552;DHT22;9921;47.186;9.778;2023-07-09T03:38:46;21.40;99.90
19552;DHT22;9921;47.186;9.778;2023-07-09T03:41:15;21.40;99.90
19552;DHT22;9921;47.186;9.778;2023-07-09T03:43:42;21.50;99.90
19552;DHT22;9921;47.186;9.778;2023-07-09T03:46:09;21.50;99.90
19552;DHT22;9921;47.186;9.778;2023-07-09T03:48:36;21.50;99.90
19552;DHT22;9921;47.186;9.778;2023-07-09T03:51:03;21.60;99.90
19552;DHT22;9921;47.186;9.778;2023-07-09T03:53:29;21.60;99.90
19552;DHT22;9921;47.186;9.778;2023-07-09T03:55:56;21.60;99.90
19552;DHT22;9921;47.186;9.778;2023-07-09T03:58:26;21.60;99.90
19552;DHT22;9921;47.186;9.778;2023-07-09T04:00:53;21.50;99.90
19552;DHT22;9921;47.186;9.778;2023-07-09T04:03:21;21.40;99.90
19552;DHT22;9921;47.186;9.778;2023-07-09T04:05:48;21.40;99.90
19552;DHT22;9921;47.186;9.778;2023-07-09T04:08:16;21.40;99.90
19552;DHT22;9921;47.186;9.778;2023-07-09T04:10:44;21.40;99.90
19552;DHT22;9921;47.186;9.778;2023-07-09T04:13:11;21.40;99.90
19552;DHT22;9921;47.186;9.778;2023-07-09T04:15:39;21.40;99.90
19552;DHT22;9921;47.186;9.778;2023-07-09T04:18:06;21.30;99.90
19552;DHT22;9921;47.186;9.778;2023-07-09T04:20:33;21.40;99.90
19552;DHT22;9921;47.186;9.778;2023-07-09T04:23:01;21.30;99.90
19552;DHT22;9921;47.186;9.778;2023-07-09T04:25:28;21.00;99.90
19552;DHT22;9921;47.186;9.778;2023-07-09T04:27:55;20.80;99.90
19552;DHT22;9921;47.186;9.778;2023-07-09T04:30:22;20.70;99.90
19552;DHT22;9921;47.186;9.778;2023-07-09T04:32:50;20.70;99.90
19552;DHT22;9921;47.186;9.778;2023-07-09T04:35:17;20.80;99.90
19552;DHT22;9921;47.186;9.778;2023-07-09T04:37:44;20.90;99.90
19552;DHT22;9921;47.186;9.778;2023-07-09T04:40:12;20.90;99.90
19552;DHT22;9921;47.186;9.778;2023-07-09T04:42:39;21.00;99.90
19552;DHT22;9921;47.186;9.778;2023-07-09T04:45:07;21.00;99.90
19552;DHT22;9921;47.186;9.778;2023-07-09T04:47:35;21.00;99.90
19552;DHT22;9921;47.186;9.778;2023-07-09T04:50:03;20.90;99.90
19552;DHT22;9921;47.186;9.778;2023-07-09T04:52:30;20.90;99.90
19552;DHT22;9921;47.186;9.778;2023-07-09T04:54:58;21.00;99.90
19552;DHT22;9921;47.186;9.778;2023-07-09T04:57:26;21.00;99.90
19552;DHT22;9921;47.186;9.778;2023-07-09T04:59:52;21.10;99.90
19552;DHT22;9921;47.186;9.778;2023-07-09T05:02:19;21.20;99.90
19552;DHT22;9921;47.186;9.778;2023-07-09T05:04:46;21.10;99.90
19552;DHT22;9921;47.186;9.778;2023-07-09T05:07:14;21.10;99.90
19552;DHT22;9921;47.186;9.778;2023-07-09T05:09:41;21.00;99.90
19552;DHT22;9921;47.186;9.778;2023-07-09T05:12:09;21.00;99.90
19552;DHT22;9921;47.186;9.778;2023-07-09T05:14:36;21.10;99.90
19552;DHT22;9921;47.186;9.778;2023-07-09T05:17:03;21.10;99.90
19552;DHT22;9921;47.186;9.778;2023-07-09T05:19:31;21.20;99.90
19552;DHT22;9921;47.186;9.778;2023-07-09T05:21:58;21.30;99.90
19552;DHT22;9921;47.186;9.778;2023-07-09T05:24:26;21.30;99.90
19552;DHT22;9921;47.186;9.778;2023-07-09T05:26:53;21.40;99.90
19552;DHT22;9921;47.186;9.778;2023-07-09T05:29:20;21.50;99.90
19552;DHT22;9921;47.186;9.778;2023-07-09T05:31:47;21.50;99.90
19552;DHT22;9921;47.186;9.778;2023-07-09T05:34:13;21.30;99.90
19552;DHT22;9921;47.186;9.778;2023-07-09T05:36:40;21.30;99.90
19552;DHT22;9921;47.186;9.778;2023-07-09T05:39:07;21.30;99.90
19552;DHT22;9921;47.186;9.778;2023-07-09T05:41:35;21.30;99.90
19552;DHT22;9921;47.186;9.778;2023-07-09T05:44:02;21.30;99.90
19552;DHT22;9921;47.186;9.778;2023-07-09T05:46:34;21.30;99.90
19552;DHT22;9921;47.186;9.778;2023-07-09T05:49:02;21.30;99.90
19552;DHT22;9921;47.186;9.778;2023-07-09T05:51:29;21.20;99.90
19552;DHT22;9921;47.186;9.778;2023-07-09T05:53:56;21.30;99.90
19552;DHT22;9921;47.186;9.778;2023-07-09T05:56:23;21.30;99.90
19552;DHT22;9921;47.186;9.778;2023-07-09T05:58:51;21.40;99.90
19552;DHT22;9921;47.186;9.778;2023-07-09T06:01:18;21.40;99.90
19552;DHT22;9921;47.186;9.778;2023-07-09T06:03:45;21.50;99.90
19552;DHT22;9921;47.186;9.778;2023-07-09T06:06:12;21.60;99.90
19552;DHT22;9921;47.186;9.778;2023-07-09T06:08:39;21.70;99.90
19552;DHT22;9921;47.186;9.778;2023-07-09T06:11:06;21.80;99.90
19552;DHT22;9921;47.186;9.778;2023-07-09T06:13:33;21.80;99.90
19552;DHT22;9921;47.186;9.778;2023-07-09T06:16:01;21.90;99.90
19552;DHT22;9921;47.186;9.778;2023-07-09T06:18:28;22.00;99.90
19552;DHT22;9921;47.186;9.778;2023-07-09T06:20:57;22.00;99.90
19552;DHT22;9921;47.186;9.778;2023-07-09T06:23:24;22.10;99.90
19552;DHT22;9921;47.186;9.778;2023-07-09T06:25:51;22.20;99.90
19552;DHT22;9921;47.186;9.778;2023-07-09T06:28:20;22.20;99.90
19552;DHT22;9921;47.186;9.778;2023-07-09T06:30:47;22.30;99.90
19552;DHT22;9921;47.186;9.778;2023-07-09T06:33:16;22.40;99.90
19552;DHT22;9921;47.186;9.778;2023-07-09T06:35:46;22.40;99.90
19552;DHT22;9921;47.186;9.778;2023-07-09T06:38:14;22.50;99.90
19552;DHT22;9921;47.186;9.778;2023-07-09T06:40:41;22.60;99.90
19552;DHT22;9921;47.186;9.778;2023-07-09T06:43:08;22.60;99.90
19552;DHT22;9921;47.186;9.778;2023-07-09T06:45:35;22.70;99.90
19552;DHT22;9921;47.186;9.778;2023-07-09T06:48:02;22.70;99.90
19552;DHT22;9921;47.186;9.778;2023-07-09T06:50:32;22.70;99.90
19552;DHT22;9921;47.186;9.778;2023-07-09T06:52:59;22.80;99.90
19552;DHT22;9921;47.186;9.778;2023-07-09T06:55:26;22.80;99.90
19552;DHT22;9921;47.186;9.778;2023-07-09T06:57:53;22.90;99.90
19552;DHT22;9921;47.186;9.778;2023-07-09T07:00:20;22.90;99.90
19552;DHT22;9921;47.186;9.778;2023-07-09T07:02:47;22.90;99.90
19552;DHT22;9921;47.186;9.778;2023-07-09T07:05:14;23.00;99.90
19552;DHT22;9921;47.186;9.778;2023-07-09T07:07:42;23.00;99.90
19552;DHT22;9921;47.186;9.778;2023-07-09T07:10:09;23.00;99.90
19552;DHT22;9921;47.186;9.778;2023-07-09T07:12:42;23.10;99.90
19552;DHT22;9921;47.186;9.778;2023-07-09T07:15:09;23.20;99.90
19552;DHT22;9921;47.186;9.778;2023-07-09T07:17:40;23.20;99.90
19552;DHT22;9921;47.186;9.778;2023-07-09T07:20:09;23.20;99.90
19552;DHT22;9921;47.186;9.778;2023-07-09T07:22:36;23.20;99.90
19552;DHT22;9921;47.186;9.778;2023-07-09T07:25:06;23.30;99.90
19552;DHT22;9921;47.186;9.778;2023-07-09T07:27:34;23.30;99.90
19552;DHT22;9921;47.186;9.778;2023-07-09T07:30:01;23.40;99.90
19552;DHT22;9921;47.186;9.778;2023-07-09T07:32:28;23.40;99.90
19552;DHT22;9921;47.186;9.778;2023-07-09T07:34:55;23.60;99.90
19552;DHT22;9921;47.186;9.778;2023-07-09T07:37:22;23.60;99.90
19552;DHT22;9921;47.186;9.778;2023-07-09T07:39:49;23.70;99.90
19552;DHT22;9921;47.186;9.778;2023-07-09T07:42:17;23.70;99.90
19552;DHT22;9921;47.186;9.778;2023-07-09T07:44:45;23.80;99.90
19552;DHT22;9921;47.186;9.778;2023-07-09T07:47:12;23.80;99.90
19552;DHT22;9921;47.186;9.778;2023-07-09T07:49:39;23.80;99.90
19552;DHT22;9921;47.186;9.778;2023-07-09T07:52:07;23.80;99.90
19552;DHT22;9921;47.186;9.778;2023-07-09T07:54:34;23.90;99.90
19552;DHT22;9921;47.186;9.778;2023-07-09T07:57:01;24.00;99.90
19552;DHT22;9921;47.186;9.778;2023-07-09T07:59:29;24.10;99.90
19552;DHT22;9921;47.186;9.778;2023-07-09T08:01:58;24.20;99.90
19552;DHT22;9921;47.186;9.778;2023-07-09T08:04:25;24.20;99.90
19552;DHT22;9921;47.186;9.778;2023-07-09T08:06:51;24.30;99.90
19552;DHT22;9921;47.186;9.778;2023-07-09T08:09:18;24.30;99.90
19552;DHT22;9921;47.186;9.778;2023-07-09T08:11:45;24.40;99.90
19552;DHT22;9921;47.186;9.778;2023-07-09T08:14:12;24.50;99.90
19552;DHT22;9921;47.186;9.778;2023-07-09T08:16:41;24.50;99.90
19552;DHT22;9921;47.186;9.778;2023-07-09T08:19:07;24.60;99.90
19552;DHT22;9921;47.186;9.778;2023-07-09T08:21:34;24.60;99.90
19552;DHT22;9921;47.186;9.778;2023-07-09T08:24:02;24.60;99.90
19552;DHT22;9921;47.186;9.778;2023-07-09T08:26:28;24.70;99.90
19552;DHT22;9921;47.186;9.778;2023-07-09T08:28:57;24.70;99.90
19552;DHT22;9921;47.186;9.778;2023-07-09T08:31:24;24.80;99.90
19552;DHT22;9921;47.186;9.778;2023-07-09T08:33:52;25.00;99.90
19552;DHT22;9921;47.186;9.778;2023-07-09T08:36:19;25.10;99.90
19552;DHT22;9921;47.186;9.778;2023-07-09T08:38:45;25.20;99.90
19552;DHT22;9921;47.186;9.778;2023-07-09T08:41:24;25.20;99.90
19552;DHT22;9921;47.186;9.778;2023-07-09T08:43:59;25.30;99.90
19552;DHT22;9921;47.186;9.778;2023-07-09T08:46:35;25.50;99.90
19552;DHT22;9921;47.186;9.778;2023-07-09T08:49:17;25.60;99.90
19552;DHT22;9921;47.186;9.778;2023-07-09T08:51:46;25.70;99.90
19552;DHT22;9921;47.186;9.778;2023-07-09T08:54:17;25.70;99.90
19552;DHT22;9921;47.186;9.778;2023-07-09T08:56:47;25.70;99.90
19552;DHT22;9921;47.186;9.778;2023-07-09T08:59:17;25.80;99.90
19552;DHT22;9921;47.186;9.778;2023-07-09T09:01:50;25.80;99.90
19552;DHT22;9921;47.186;9.778;2023-07-09T09:04:22;25.90;99.90
19552;DHT22;9921;47.186;9.778;2023-07-09T09:06:57;25.90;99.90
19552;DHT22;9921;47.186;9.778;2023-07-09T09:09:30;26.00;99.90
19552;DHT22;9921;47.186;9.778;2023-07-09T09:12:03;26.00;99.90
19552;DHT22;9921;47.186;9.778;2023-07-09T09:14:34;26.10;99.90
19552;DHT22;9921;47.186;9.778;2023-07-09T09:17:03;26.20;99.90
19552;DHT22;9921;47.186;9.778;2023-07-09T09:19:46;26.20;99.90
19552;DHT22;9921;47.186;9.778;2023-07-09T09:22:17;26.30;99.90
19552;DHT22;9921;47.186;9.778;2023-07-09T09:24:55;26.50;99.90
19552;DHT22;9921;47.186;9.778;2023-07-09T09:27:24;26.60;99.90
19552;DHT22;9921;47.186;9.778;2023-07-09T09:29:51;26.70;99.90
19552;DHT22;9921;47.186;9.778;2023-07-09T09:32:22;26.70;99.90
19552;DHT22;9921;47.186;9.778;2023-07-09T09:34:53;26.80;99.90
19552;DHT22;9921;47.186;9.778;2023-07-09T09:37:28;26.90;99.90
19552;DHT22;9921;47.186;9.778;2023-07-09T09:39:56;27.10;99.90
19552;DHT22;9921;47.186;9.778;2023-07-09T09:42:24;27.30;99.90
19552;DHT22;9921;47.186;9.778;2023-07-09T09:44:54;27.30;99.90
19552;DHT22;9921;47.186;9.778;2023-07-09T09:47:21;27.30;99.90
19552;DHT22;9921;47.186;9.778;2023-07-09T09:49:53;27.50;99.90
19552;DHT22;9921;47.186;9.778;2023-07-09T09:52:28;27.50;99.90
19552;DHT22;9921;47.186;9.778;2023-07-09T09:55:11;27.60;99.90
19552;DHT22;9921;47.186;9.778;2023-07-09T09:57:38;27.70;99.90
19552;DHT22;9921;47.186;9.778;2023-07-09T10:00:12;27.80;99.90
19552;DHT22;9921;47.186;9.778;2023-07-09T10:02:40;27.90;99.90
19552;DHT22;9921;47.186;9.778;2023-07-09T10:05:11;28.00;99.90
19552;DHT22;9921;47.186;9.778;2023-07-09T10:07:43;28.20;99.90
19552;DHT22;9921;47.186;9.778;2023-07-09T10:10:14;28.30;99.90
19552;DHT22;9921;47.186;9.778;2023-07-09T10:12:49;28.50;99.90
19552;DHT22;9921;47.186;9.778;2023-07-09T10:15:25;28.70;99.90
19552;DHT22;9921;47.186;9.778;2023-07-09T10:17:58;28.80;99.90
19552;DHT22;9921;47.186;9.778;2023-07-09T10:20:34;28.90;99.90
19552;DHT22;9921;47.186;9.778;2023-07-09T10:23:12;28.90;99.90
19552;DHT22;9921;47.186;9.778;2023-07-09T10:25:48;29.10;99.90
19552;DHT22;9921;47.186;9.778;2023-07-09T10:31:26;29.30;99.90
19552;DHT22;9921;47.186;9.778;2023-07-09T10:34:04;29.50;99.90
19552;DHT22;9921;47.186;9.778;2023-07-09T10:36:44;29.70;99.90
19552;DHT22;9921;47.186;9.778;2023-07-09T10:39:16;29.70;99.90
19552;DHT22;9921;47.186;9.778;2023-07-09T10:41:43;29.80;99.90
19552;DHT22;9921;47.186;9.778;2023-07-09T10:44:16;29.90;99.90
19552;DHT22;9921;47.186;9.778;2023-07-09T10:46:48;30.00;99.90
19552;DHT22;9921;47.186;9.778;2023-07-09T10:49:16;30.10;99.90
19552;DHT22;9921;47.186;9.778;2023-07-09T10:51:51;30.10;99.90
19552;DHT22;9921;47.186;9.778;2023-07-09T10:54:27;30.20;99.90
19552;DHT22;9921;47.186;9.778;2023-07-09T10:56:58;30.20;99.90
19552;DHT22;9921;47.186;9.778;2023-07-09T10:59:30;30.30;99.90
19552;DHT22;9921;47.186;9.778;2023-07-09T11:02:04;30.40;99.90
19552;DHT22;9921;47.186;9.778;2023-07-09T11:04:37;30.50;99.90
19552;DHT22;9921;47.186;9.778;2023-07-09T11:07:11;30.60;99.50
19552;DHT22;9921;47.186;9.778;2023-07-09T11:09:41;30.70;99.20
19552;DHT22;9921;47.186;9.778;2023-07-09T11:12:12;30.80;99.30
19552;DHT22;9921;47.186;9.778;2023-07-09T11:14:43;30.90;99.90
19552;DHT22;9921;47.186;9.778;2023-07-09T11:17:15;30.90;99.80
19552;DHT22;9921;47.186;9.778;2023-07-09T11:19:44;31.00;99.50
19552;DHT22;9921;47.186;9.778;2023-07-09T11:22:20;31.00;99.90
19552;DHT22;9921;47.186;9.778;2023-07-09T11:24:50;30.90;99.40
19552;DHT22;9921;47.186;9.778;2023-07-09T11:27:19;30.90;98.40
19552;DHT22;9921;47.186;9.778;2023-07-09T11:29:47;31.10;99.90
19552;DHT22;9921;47.186;9.778;2023-07-09T11:32:20;31.10;98.60
19552;DHT22;9921;47.186;9.778;2023-07-09T11:34:47;31.20;99.00
19552;DHT22;9921;47.186;9.778;2023-07-09T11:37:16;31.30;98.40
19552;DHT22;9921;47.186;9.778;2023-07-09T11:39:45;31.30;98.50
19552;DHT22;9921;47.186;9.778;2023-07-09T11:42:28;31.40;99.00
19552;DHT22;9921;47.186;9.778;2023-07-09T11:45:01;31.40;98.40
19552;DHT22;9921;47.186;9.778;2023-07-09T11:47:31;31.50;98.10
19552;DHT22;9921;47.186;9.778;2023-07-09T11:50:03;31.50;99.80
19552;DHT22;9921;47.186;9.778;2023-07-09T11:52:36;31.60;97.40
19552;DHT22;9921;47.186;9.778;2023-07-09T11:55:20;31.60;97.60
19552;DHT22;9921;47.186;9.778;2023-07-09T11:57:52;31.60;97.00
19552;DHT22;9921;47.186;9.778;2023-07-09T12:00:19;31.60;96.90
19552;DHT22;9921;47.186;9.778;2023-07-09T12:02:46;31.60;99.10
19552;DHT22;9921;47.186;9.778;2023-07-09T12:05:13;31.70;98.40
19552;DHT22;9921;47.186;9.778;2023-07-09T12:07:46;31.70;97.30
19552;DHT22;9921;47.186;9.778;2023-07-09T12:10:19;31.70;98.10
19552;DHT22;9921;47.186;9.778;2023-07-09T12:12:46;31.70;97.40
19552;DHT22;9921;47.186;9.778;2023-07-09T12:15:17;31.60;97.40
19552;DHT22;9921;47.186;9.778;2023-07-09T12:17:54;31.70;96.10
19552;DHT22;9921;47.186;9.778;2023-07-09T12:20:21;31.80;96.40
19552;DHT22;9921;47.186;9.778;2023-07-09T12:22:49;32.00;96.70
19552;DHT22;9921;47.186;9.778;2023-07-09T12:25:22;32.10;96.70
19552;DHT22;9921;47.186;9.778;2023-07-09T12:27:50;32.10;94.60
19552;DHT22;9921;47.186;9.778;2023-07-09T12:30:17;32.10;95.00
19552;DHT22;9921;47.186;9.778;2023-07-09T12:32:45;32.20;96.70
19552;DHT22;9921;47.186;9.778;2023-07-09T12:35:14;32.20;94.80
19552;DHT22;9921;47.186;9.778;2023-07-09T12:37:42;32.30;96.50
19552;DHT22;9921;47.186;9.778;2023-07-09T12:40:27;32.20;96.20
19552;DHT22;9921;47.186;9.778;2023-07-09T12:42:55;32.30;95.50
19552;DHT22;9921;47.186;9.778;2023-07-09T12:45:23;32.30;94.00
19552;DHT22;9921;47.186;9.778;2023-07-09T12:47:51;32.40;94.50
19552;DHT22;9921;47.186;9.778;2023-07-09T12:50:22;32.30;94.70
19552;DHT22;9921;47.186;9.778;2023-07-09T12:52:55;32.30;95.40
19552;DHT22;9921;47.186;9.778;2023-07-09T12:55:25;32.40;95.10
19552;DHT22;9921;47.186;9.778;2023-07-09T12:57:54;32.40;96.00
19552;DHT22;9921;47.186;9.778;2023-07-09T13:00:22;32.50;95.10
19552;DHT22;9921;47.186;9.778;2023-07-09T13:02:54;32.40;94.70
19552;DHT22;9921;47.186;9.778;2023-07-09T13:05:23;32.50;95.40
19552;DHT22;9921;47.186;9.778;2023-07-09T13:07:51;32.60;94.40
19552;DHT22;9921;47.186;9.778;2023-07-09T13:10:24;32.60;94.80
19552;DHT22;9921;47.186;9.778;2023-07-09T13:12:54;32.50;95.10
19552;DHT22;9921;47.186;9.778;2023-07-09T13:15:27;32.60;95.00
19552;DHT22;9921;47.186;9.778;2023-07-09T13:18:00;32.60;92.50
19552;DHT22;9921;47.186;9.778;2023-07-09T13:20:28;32.60;93.20
19552;DHT22;9921;47.186;9.778;2023-07-09T13:22:55;32.50;93.60
19552;DHT22;9921;47.186;9.778;2023-07-09T13:25:24;32.40;93.90
19552;DHT22;9921;47.186;9.778;2023-07-09T13:27:52;32.50;95.70
19552;DHT22;9921;47.186;9.778;2023-07-09T13:30:18;32.50;94.90
19552;DHT22;9921;47.186;9.778;2023-07-09T13:32:46;32.40;91.70
19552;DHT22;9921;47.186;9.778;2023-07-09T13:35:16;32.30;93.70
19552;DHT22;9921;47.186;9.778;2023-07-09T13:37:44;32.40;95.10
19552;DHT22;9921;47.186;9.778;2023-07-09T13:40:12;32.50;95.00
19552;DHT22;9921;47.186;9.778;2023-07-09T13:42:41;32.50;92.70
19552;DHT22;9921;47.186;9.778;2023-07-09T13:45:16;32.50;93.50
19552;DHT22;9921;47.186;9.778;2023-07-09T13:47:43;32.50;92.80
19552;DHT22;9921;47.186;9.778;2023-07-09T13:50:10;32.50;93.20
19552;DHT22;9921;47.186;9.778;2023-07-09T13:52:37;32.60;93.00
19552;DHT22;9921;47.186;9.778;2023-07-09T13:55:05;32.60;93.40
19552;DHT22;9921;47.186;9.778;2023-07-09T13:57:32;32.70;94.30
19552;DHT22;9921;47.186;9.778;2023-07-09T14:00:00;32.70;93.30
19552;DHT22;9921;47.186;9.778;2023-07-09T14:02:30;32.70;93.00
19552;DHT22;9921;47.186;9.778;2023-07-09T14:04:58;32.70;93.80
19552;DHT22;9921;47.186;9.778;2023-07-09T14:07:27;32.70;93.40
19552;DHT22;9921;47.186;9.778;2023-07-09T14:09:55;32.70;94.20
19552;DHT22;9921;47.186;9.778;2023-07-09T14:12:23;32.60;92.60
19552;DHT22;9921;47.186;9.778;2023-07-09T14:14:51;32.70;93.20
19552;DHT22;9921;47.186;9.778;2023-07-09T14:17:19;32.60;93.60
19552;DHT22;9921;47.186;9.778;2023-07-09T14:19:47;32.60;92.60
19552;DHT22;9921;47.186;9.778;2023-07-09T14:22:24;32.50;95.80
19552;DHT22;9921;47.186;9.778;2023-07-09T14:24:53;32.60;95.20
19552;DHT22;9921;47.186;9.778;2023-07-09T14:27:20;32.50;93.60
19552;DHT22;9921;47.186;9.778;2023-07-09T14:29:46;32.50;93.90
19552;DHT22;9921;47.186;9.778;2023-07-09T14:32:32;32.50;92.30
19552;DHT22;9921;47.186;9.778;2023-07-09T14:34:59;32.60;93.70
19552;DHT22;9921;47.186;9.778;2023-07-09T14:37:27;32.60;93.80
19552;DHT22;9921;47.186;9.778;2023-07-09T14:39:54;32.50;93.10
19552;DHT22;9921;47.186;9.778;2023-07-09T14:42:21;32.50;93.10
19552;DHT22;9921;47.186;9.778;2023-07-09T14:44:48;32.50;93.20
19552;DHT22;9921;47.186;9.778;2023-07-09T14:47:17;32.40;93.60
19552;DHT22;9921;47.186;9.778;2023-07-09T14:49:46;32.30;95.10
19552;DHT22;9921;47.186;9.778;2023-07-09T14:52:15;32.30;94.50
19552;DHT22;9921;47.186;9.778;2023-07-09T14:54:44;32.20;94.60
19552;DHT22;9921;47.186;9.778;2023-07-09T14:57:18;32.20;95.00
19552;DHT22;9921;47.186;9.778;2023-07-09T14:59:46;32.20;94.70
19552;DHT22;9921;47.186;9.778;2023-07-09T15:02:28;32.10;94.30
19552;DHT22;9921;47.186;9.778;2023-07-09T15:04:58;32.10;94.20
19552;DHT22;9921;47.186;9.778;2023-07-09T15:07:25;32.10;94.00
19552;DHT22;9921;47.186;9.778;2023-07-09T15:09:55;32.10;94.10
19552;DHT22;9921;47.186;9.778;2023-07-09T15:12:28;32.00;96.30
19552;DHT22;9921;47.186;9.778;2023-07-09T15:15:00;31.90;95.30
19552;DHT22;9921;47.186;9.778;2023-07-09T15:17:28;31.90;93.20
19552;DHT22;9921;47.186;9.778;2023-07-09T15:19:55;31.90;95.50
19552;DHT22;9921;47.186;9.778;2023-07-09T15:22:29;31.90;94.10
19552;DHT22;9921;47.186;9.778;2023-07-09T15:24:57;31.90;94.30
19552;DHT22;9921;47.186;9.778;2023-07-09T15:27:24;31.90;94.70
19552;DHT22;9921;47.186;9.778;2023-07-09T15:29:50;31.90;95.20
19552;DHT22;9921;47.186;9.778;2023-07-09T15:32:17;31.80;93.40
19552;DHT22;9921;47.186;9.778;2023-07-09T15:34:44;31.90;94.20
19552;DHT22;9921;47.186;9.778;2023-07-09T15:37:20;31.90;95.60
19552;DHT22;9921;47.186;9.778;2023-07-09T15:39:48;31.90;94.70
19552;DHT22;9921;47.186;9.778;2023-07-09T15:42:15;31.90;94.50
19552;DHT22;9921;47.186;9.778;2023-07-09T15:44:42;31.90;94.70
19552;DHT22;9921;47.186;9.778;2023-07-09T15:47:16;31.80;94.90
19552;DHT22;9921;47.186;9.778;2023-07-09T15:49:44;31.80;94.50
19552;DHT22;9921;47.186;9.778;2023-07-09T15:52:11;31.80;94.80
19552;DHT22;9921;47.186;9.778;2023-07-09T15:54:38;31.70;93.40
19552;DHT22;9921;47.186;9.778;2023-07-09T15:57:08;31.60;94.10
19552;DHT22;9921;47.186;9.778;2023-07-09T15:59:35;31.50;95.20